createdAt,value
2018-12-15T00:00:35.415Z,1.22
2018-12-15T00:01:35.673Z,1.22
2018-12-15T00:02:35.406Z,1.19
2018-12-15T00:03:35.382Z,1.23
2018-12-15T00:04:35.371Z,1.24
2018-12-15T00:05:35.354Z,1.23
2018-12-15T00:06:35.342Z,1.22
2018-12-15T00:07:35.588Z,1.13
2018-12-15T00:08:35.583Z,1.24
2018-12-15T00:09:35.552Z,1.17
2018-12-15T00:10:35.549Z,1.24
2018-12-15T00:11:35.536Z,1.16
2018-12-15T00:12:35.289Z,1.17
2018-12-15T00:13:35.512Z,1.19
2018-12-15T00:14:35.500Z,1.26
2018-12-15T00:15:35.474Z,1.28
2018-12-15T00:16:35.470Z,1.24
2018-12-15T00:17:35.462Z,1.22
2018-12-15T00:18:34.940Z,1.28
2018-12-15T00:19:35.434Z,1.32
2018-12-15T00:20:34.921Z,1.45
2018-12-15T00:21:35.410Z,1.42
2018-12-15T00:22:35.141Z,1.42
2018-12-15T00:23:35.390Z,1.4
2018-12-15T00:24:35.383Z,1.42
2018-12-15T00:25:34.865Z,1.41
2018-12-15T00:26:35.109Z,1.49
2018-12-15T00:27:35.329Z,1.45
2018-12-15T00:28:35.091Z,1.38
2018-12-15T00:29:35.317Z,1.3
2018-12-15T00:30:34.826Z,1.34
2018-12-15T00:31:35.276Z,1.34
2018-12-15T00:32:35.035Z,1.32
2018-12-15T00:33:35.272Z,1.24
2018-12-15T00:34:35.255Z,1.37
2018-12-15T00:35:34.759Z,1.34
2018-12-15T00:36:34.995Z,1.28
2018-12-15T00:37:34.997Z,1.35
2018-12-15T00:38:34.976Z,1.32
2018-12-15T00:39:34.949Z,1.31
2018-12-15T00:40:34.961Z,1.38
2018-12-15T00:41:35.190Z,1.42
2018-12-15T00:42:34.701Z,1.45
2018-12-15T00:43:35.156Z,1.4
2018-12-15T00:44:34.909Z,1.35
2018-12-15T00:45:34.889Z,1.41
2018-12-15T00:46:34.634Z,1.42
2018-12-15T00:47:34.858Z,1.45
2018-12-15T00:48:35.104Z,1.45
2018-12-15T00:49:35.090Z,1.49
2018-12-15T00:50:35.089Z,1.45
2018-12-15T00:51:34.829Z,1.42
2018-12-15T00:52:34.822Z,1.41
2018-12-15T00:53:34.805Z,1.42
2018-12-15T00:54:34.790Z,1.38
2018-12-15T00:55:35.021Z,1.4
2018-12-15T00:56:35.029Z,1.44
2018-12-15T00:57:35.005Z,1.38
2018-12-15T00:58:34.753Z,1.4
2018-12-15T00:59:34.967Z,1.45
2018-12-15T01:00:34.724Z,1.34
2018-12-15T01:01:34.960Z,1.37
2018-12-15T01:02:34.678Z,1.37
2018-12-15T01:03:34.673Z,1.26
2018-12-15T01:04:36.495Z,1.34
2018-12-15T01:05:34.721Z,1.4
2018-12-15T01:06:34.877Z,1.41
2018-12-15T01:07:35.261Z,1.38
2018-12-15T01:08:34.617Z,1.48
2018-12-15T01:09:34.843Z,1.45
2018-12-15T01:10:34.586Z,1.55
2018-12-15T01:11:34.577Z,1.48
2018-12-15T01:12:34.633Z,1.52
2018-12-15T01:13:34.821Z,1.5
2018-12-15T01:14:34.788Z,1.52
2018-12-15T01:15:34.277Z,1.52
2018-12-15T01:16:34.771Z,1.53
2018-12-15T01:17:34.761Z,1.49
2018-12-15T01:18:34.253Z,1.59
2018-12-15T01:19:34.234Z,1.55
2018-12-15T01:20:34.719Z,1.44
2018-12-15T01:21:34.728Z,1.5
2018-12-15T01:22:34.441Z,1.52
2018-12-15T01:23:34.677Z,1.5
2018-12-15T01:24:34.423Z,1.49
2018-12-15T01:25:34.409Z,1.49
2018-12-15T01:26:34.409Z,1.35
2018-12-15T01:27:34.383Z,1.42
2018-12-15T01:28:34.139Z,1.42
2018-12-15T01:29:34.606Z,1.42
2018-12-15T01:30:34.389Z,1.48
2018-12-15T01:31:34.589Z,1.44
2018-12-15T01:32:34.079Z,1.45
2018-12-15T01:33:34.570Z,1.5
2018-12-15T01:34:35.129Z,1.45
2018-12-15T01:35:34.305Z,1.4
2018-12-15T01:36:34.076Z,1.45
2018-12-15T01:37:34.275Z,1.4
2018-12-15T01:38:34.264Z,1.42
2018-12-15T01:39:34.243Z,1.34
2018-12-15T01:40:34.228Z,1.4
2018-12-15T01:41:34.478Z,1.38
2018-12-15T01:42:33.962Z,1.37
2018-12-15T01:43:33.970Z,1.41
2018-12-15T01:44:34.188Z,1.42
2018-12-15T01:45:34.425Z,1.31
2018-12-15T01:46:34.416Z,1.38
2018-12-15T01:47:34.168Z,1.28
2018-12-15T01:48:33.915Z,1.2
2018-12-15T01:49:34.377Z,1.22
2018-12-15T01:50:34.125Z,1.2
2018-12-15T01:51:34.108Z,1.2
2018-12-15T01:52:34.110Z,1.12
2018-12-15T01:53:34.333Z,1.1
2018-12-15T01:54:34.072Z,1.12
2018-12-15T01:55:34.310Z,1.13
2018-12-15T01:56:34.045Z,1.14
2018-12-15T01:57:34.290Z,1.12
2018-12-15T01:58:33.776Z,1.04
2018-12-15T01:59:34.024Z,1.01
2018-12-15T02:00:34.244Z,0.94
2018-12-15T02:01:33.749Z,0.98
2018-12-15T02:02:34.224Z,0.95
2018-12-15T02:03:33.961Z,0.92
2018-12-15T02:04:33.700Z,1.02
2018-12-15T02:05:33.951Z,1.01
2018-12-15T02:06:34.177Z,1.05
2018-12-15T02:07:34.157Z,1.17
2018-12-15T02:08:33.907Z,1.14
2018-12-15T02:09:34.149Z,1.2
2018-12-15T02:10:33.625Z,1.22
2018-12-15T02:11:33.857Z,1.22
2018-12-15T02:12:33.862Z,1.23
2018-12-15T02:13:33.840Z,1.24
2018-12-15T02:14:33.831Z,1.32
2018-12-15T02:15:34.062Z,1.23
2018-12-15T02:16:33.809Z,1.32
2018-12-15T02:17:38.554Z,1.3
2018-12-15T02:18:34.044Z,1.38
2018-12-15T02:19:33.537Z,1.41
2018-12-15T02:20:33.756Z,1.31
2018-12-15T02:21:34.079Z,1.38
2018-12-15T02:22:33.735Z,1.41
2018-12-15T02:23:33.980Z,1.41
2018-12-15T02:24:33.973Z,1.45
2018-12-15T02:25:33.447Z,1.45
2018-12-15T02:26:33.693Z,1.42
2018-12-15T02:27:33.679Z,1.48
2018-12-15T02:28:33.682Z,1.44
2018-12-15T02:29:33.652Z,1.45
2018-12-15T02:30:33.676Z,1.48
2018-12-15T02:31:33.959Z,1.42
2018-12-15T02:32:33.891Z,1.41
2018-12-15T02:33:33.620Z,1.45
2018-12-15T02:34:33.592Z,1.45
2018-12-15T02:35:33.606Z,1.45
2018-12-15T02:36:33.830Z,1.48
2018-12-15T02:37:33.577Z,1.41
2018-12-15T02:38:33.554Z,1.55
2018-12-15T02:39:33.804Z,1.44
2018-12-15T02:40:33.792Z,1.42
2018-12-15T02:41:33.510Z,1.37
2018-12-15T02:42:33.496Z,1.45
2018-12-15T02:43:33.487Z,1.42
2018-12-15T02:44:33.495Z,1.45
2018-12-15T02:45:33.727Z,1.38
2018-12-15T02:46:33.463Z,1.31
2018-12-15T02:47:41.126Z,1.41
2018-12-15T02:48:33.431Z,1.4
2018-12-15T02:49:33.171Z,1.37
2018-12-15T02:50:33.667Z,1.44
2018-12-15T02:51:33.394Z,1.45
2018-12-15T02:52:33.374Z,1.44
2018-12-15T02:53:33.387Z,1.5
2018-12-15T02:54:33.609Z,1.55
2018-12-15T02:55:33.385Z,1.49
2018-12-15T02:56:33.360Z,1.42
2018-12-15T02:57:33.333Z,1.44
2018-12-15T02:58:33.318Z,1.45
2018-12-15T02:59:33.569Z,1.42
2018-12-15T03:00:33.546Z,1.35
2018-12-15T03:01:33.536Z,1.42
2018-12-15T03:02:33.503Z,1.45
2018-12-15T03:03:33.567Z,1.41
2018-12-15T03:04:32.984Z,1.45
2018-12-15T03:05:33.229Z,1.42
2018-12-15T03:06:33.221Z,1.4
2018-12-15T03:07:33.473Z,1.45
2018-12-15T03:08:33.187Z,1.42
2018-12-15T03:09:33.179Z,1.42
2018-12-15T03:10:32.918Z,1.44
2018-12-15T03:11:33.394Z,1.45
2018-12-15T03:12:32.896Z,1.52
2018-12-15T03:13:33.389Z,1.45
2018-12-15T03:14:33.153Z,1.5
2018-12-15T03:15:33.152Z,1.41
2018-12-15T03:16:33.100Z,1.41
2018-12-15T03:17:33.198Z,1.41
2018-12-15T03:18:32.833Z,1.44
2018-12-15T03:19:33.075Z,1.5
2018-12-15T03:20:33.052Z,1.44
2018-12-15T03:21:33.039Z,1.44
2018-12-15T03:22:33.265Z,1.41
2018-12-15T03:23:33.026Z,1.45
2018-12-15T03:24:33.258Z,1.41
2018-12-15T03:25:33.232Z,1.4
2018-12-15T03:26:32.988Z,1.44
2018-12-15T03:27:33.092Z,1.41
2018-12-15T03:28:33.211Z,1.42
2018-12-15T03:29:32.941Z,1.41
2018-12-15T03:30:33.199Z,1.44
2018-12-15T03:31:34.430Z,1.45
2018-12-15T03:32:33.229Z,1.45
2018-12-15T03:33:32.897Z,1.38
2018-12-15T03:34:32.673Z,1.31
2018-12-15T03:35:35.582Z,1.35
2018-12-15T03:36:32.616Z,1.42
2018-12-15T03:37:32.634Z,1.44
2018-12-15T03:38:32.585Z,1.35
2018-12-15T03:39:32.840Z,1.4
2018-12-15T03:40:32.588Z,1.38
2018-12-15T03:41:33.049Z,1.37
2018-12-15T03:42:32.811Z,1.34
2018-12-15T03:43:32.791Z,1.32
2018-12-15T03:44:32.770Z,1.41
2018-12-15T03:45:32.759Z,1.38
2018-12-15T03:46:32.524Z,1.31
2018-12-15T03:47:32.737Z,1.35
2018-12-15T03:48:32.515Z,1.44
2018-12-15T03:49:32.720Z,1.31
2018-12-15T03:50:32.731Z,1.37
2018-12-15T03:51:32.695Z,1.28
2018-12-15T03:52:32.998Z,1.34
2018-12-15T03:53:32.911Z,1.32
2018-12-15T03:54:32.705Z,1.35
2018-12-15T03:55:32.945Z,1.37
2018-12-15T03:56:32.629Z,1.31
2018-12-15T03:57:32.367Z,1.35
2018-12-15T03:58:32.668Z,1.45
2018-12-15T03:59:32.861Z,1.4
2018-12-15T04:00:32.330Z,1.44
2018-12-15T04:01:32.818Z,1.42
2018-12-15T04:02:32.584Z,1.4
2018-12-15T04:03:32.815Z,1.4
2018-12-15T04:04:32.790Z,1.45
2018-12-15T04:05:32.563Z,1.41
2018-12-15T04:06:32.547Z,1.37
2018-12-15T04:07:32.540Z,1.44
2018-12-15T04:08:32.758Z,1.4
2018-12-15T04:09:32.727Z,1.35
2018-12-15T04:10:32.751Z,1.38
2018-12-15T04:11:32.266Z,1.45
2018-12-15T04:12:32.722Z,1.3
2018-12-15T04:13:32.697Z,1.35
2018-12-15T04:14:32.419Z,1.38
2018-12-15T04:15:32.658Z,1.38
2018-12-15T04:16:32.407Z,1.34
2018-12-15T04:17:32.643Z,1.32
2018-12-15T04:18:32.625Z,1.34
2018-12-15T04:19:32.631Z,1.34
2018-12-15T04:20:32.364Z,1.37
2018-12-15T04:21:32.090Z,1.35
2018-12-15T04:22:32.578Z,1.4
2018-12-15T04:23:32.328Z,1.4
2018-12-15T04:24:32.542Z,1.38
2018-12-15T04:25:32.559Z,1.44
2018-12-15T04:26:32.287Z,1.37
2018-12-15T04:27:32.013Z,1.34
2018-12-15T04:28:32.003Z,1.45
2018-12-15T04:29:32.491Z,1.45
2018-12-15T04:30:32.235Z,1.35
2018-12-15T04:31:31.980Z,1.41
2018-12-15T04:32:32.455Z,1.4
2018-12-15T04:33:32.216Z,1.35
2018-12-15T04:34:32.178Z,1.42
2018-12-15T04:35:32.432Z,1.4
2018-12-15T04:36:32.425Z,1.24
2018-12-15T04:37:31.897Z,1.38
2018-12-15T04:38:32.133Z,1.35
2018-12-15T04:39:31.932Z,1.28
2018-12-15T04:40:32.122Z,1.35
2018-12-15T04:41:32.353Z,1.3
2018-12-15T04:42:32.336Z,1.4
2018-12-15T04:43:32.326Z,1.4
2018-12-15T04:44:32.078Z,1.38
2018-12-15T04:45:32.083Z,1.38
2018-12-15T04:46:32.081Z,1.31
2018-12-15T04:47:32.038Z,1.38
2018-12-15T04:48:32.262Z,1.34
2018-12-15T04:49:32.031Z,1.28
2018-12-15T04:50:31.993Z,1.41
2018-12-15T04:51:31.991Z,1.35
2018-12-15T04:52:31.973Z,1.26
2018-12-15T04:53:32.258Z,1.22
2018-12-15T04:54:32.223Z,1.24
2018-12-15T04:55:31.940Z,1.17
2018-12-15T04:56:31.938Z,1.23
2018-12-15T04:57:31.914Z,1.16
2018-12-15T04:58:31.656Z,1.22
2018-12-15T04:59:31.907Z,1.24
2018-12-15T05:00:31.676Z,1.19
2018-12-15T05:01:31.876Z,1.22
2018-12-15T05:02:31.869Z,1.28
2018-12-15T05:03:31.850Z,1.24
2018-12-15T05:04:32.078Z,1.32
2018-12-15T05:05:31.840Z,1.37
2018-12-15T05:06:32.623Z,1.4
2018-12-15T05:07:32.041Z,1.42
2018-12-15T05:08:31.793Z,1.41
2018-12-15T05:09:32.019Z,1.44
2018-12-15T05:10:32.027Z,1.41
2018-12-15T05:11:32.001Z,1.45
2018-12-15T05:12:31.746Z,1.41
2018-12-15T05:13:31.979Z,1.4
2018-12-15T05:14:31.968Z,1.42
2018-12-15T05:15:31.959Z,1.45
2018-12-15T05:16:31.706Z,1.48
2018-12-15T05:17:31.683Z,1.4
2018-12-15T05:18:31.909Z,1.45
2018-12-15T05:19:31.909Z,1.44
2018-12-15T05:20:31.653Z,1.34
2018-12-15T05:21:31.650Z,1.45
2018-12-15T05:22:31.612Z,1.38
2018-12-15T05:23:31.612Z,1.34
2018-12-15T05:24:31.850Z,1.3
2018-12-15T05:25:31.582Z,1.32
2018-12-15T05:26:31.589Z,1.41
2018-12-15T05:27:31.807Z,1.41
2018-12-15T05:28:31.560Z,1.42
2018-12-15T05:29:31.533Z,1.4
2018-12-15T05:30:31.551Z,1.42
2018-12-15T05:31:31.751Z,1.5
2018-12-15T05:32:31.739Z,1.4
2018-12-15T05:33:31.803Z,1.41
2018-12-15T05:34:31.736Z,1.37
2018-12-15T05:35:31.469Z,1.38
2018-12-15T05:36:31.596Z,1.44
2018-12-15T05:37:31.433Z,1.37
2018-12-15T05:38:31.679Z,1.4
2018-12-15T05:39:31.422Z,1.44
2018-12-15T05:40:31.715Z,1.48
2018-12-15T05:41:31.645Z,1.44
2018-12-15T05:42:31.376Z,1.45
2018-12-15T05:43:31.622Z,1.45
2018-12-15T05:44:31.615Z,1.45
2018-12-15T05:45:31.604Z,1.48
2018-12-15T05:46:31.611Z,1.45
2018-12-15T05:47:31.331Z,1.44
2018-12-15T05:48:31.572Z,1.41
2018-12-15T05:49:31.306Z,1.44
2018-12-15T05:50:31.280Z,1.44
2018-12-15T05:51:31.305Z,1.45
2018-12-15T05:52:31.267Z,1.44
2018-12-15T05:53:31.506Z,1.48
2018-12-15T05:54:31.268Z,1.52
2018-12-15T05:55:31.234Z,1.5
2018-12-15T05:56:31.226Z,1.5
2018-12-15T05:57:31.449Z,1.48
2018-12-15T05:58:31.436Z,1.4
2018-12-15T05:59:31.424Z,1.52
2018-12-15T06:00:31.420Z,1.45
2018-12-15T06:01:30.926Z,1.38
2018-12-15T06:02:31.386Z,1.4
2018-12-15T06:03:31.398Z,1.42
2018-12-15T06:04:31.359Z,1.45
2018-12-15T06:05:31.119Z,1.49
2018-12-15T06:06:32.053Z,1.48
2018-12-15T06:07:31.346Z,1.41
2018-12-15T06:08:31.317Z,1.42
2018-12-15T06:09:31.305Z,1.44
2018-12-15T06:10:31.069Z,1.42
2018-12-15T06:11:31.044Z,1.4
2018-12-15T06:12:31.274Z,1.42
2018-12-15T06:13:31.008Z,1.41
2018-12-15T06:14:31.273Z,1.3
2018-12-15T06:15:30.991Z,1.34
2018-12-15T06:16:31.244Z,1.28
2018-12-15T06:17:31.217Z,1.42
2018-12-15T06:18:36.535Z,1.41
2018-12-15T06:19:30.948Z,1.41
2018-12-15T06:20:31.185Z,1.41
2018-12-15T06:21:30.707Z,1.38
2018-12-15T06:22:30.968Z,1.48
2018-12-15T06:23:31.144Z,1.42
2018-12-15T06:24:31.149Z,1.49
2018-12-15T06:25:31.124Z,1.44
2018-12-15T06:26:31.113Z,1.49
2018-12-15T06:27:31.090Z,1.42
2018-12-15T06:28:30.840Z,1.4
2018-12-15T06:29:30.839Z,1.53
2018-12-15T06:30:30.821Z,1.56
2018-12-15T06:31:31.066Z,1.56
2018-12-15T06:32:31.035Z,1.49
2018-12-15T06:33:31.032Z,1.44
2018-12-15T06:34:31.015Z,1.44
2018-12-15T06:35:31.004Z,1.44
2018-12-15T06:36:30.499Z,1.45
2018-12-15T06:37:30.970Z,1.41
2018-12-15T06:38:30.971Z,1.42
2018-12-15T06:39:30.954Z,1.4
2018-12-15T06:40:30.950Z,1.4
2018-12-15T06:41:30.930Z,1.41
2018-12-15T06:42:30.939Z,1.38
2018-12-15T06:43:30.674Z,1.37
2018-12-15T06:44:30.894Z,1.35
2018-12-15T06:45:30.897Z,1.24
2018-12-15T06:46:30.870Z,1.28
2018-12-15T06:47:30.641Z,1.28
2018-12-15T06:48:30.852Z,1.24
2018-12-15T06:49:30.345Z,1.35
2018-12-15T06:50:30.588Z,1.37
2018-12-15T06:51:30.836Z,1.41
2018-12-15T06:52:30.579Z,1.32
2018-12-15T06:53:30.803Z,1.34
2018-12-15T06:54:30.564Z,1.4
2018-12-15T06:55:30.544Z,1.41
2018-12-15T06:56:30.782Z,1.45
2018-12-15T06:57:30.757Z,1.38
2018-12-15T06:58:30.586Z,1.42
2018-12-15T06:59:30.745Z,1.42
2018-12-15T07:00:30.747Z,1.38
2018-12-15T07:01:30.475Z,1.37
2018-12-15T07:02:30.702Z,1.35
2018-12-15T07:03:30.431Z,1.41
2018-12-15T07:04:30.439Z,1.42
2018-12-15T07:05:30.232Z,1.37
2018-12-15T07:06:30.509Z,1.4
2018-12-15T07:07:30.633Z,1.34
2018-12-15T07:08:30.643Z,1.42
2018-12-15T07:09:30.371Z,1.45
2018-12-15T07:10:30.342Z,1.45
2018-12-15T07:11:30.590Z,1.45
2018-12-15T07:12:30.190Z,1.45
2018-12-15T07:13:30.080Z,1.44
2018-12-15T07:14:30.058Z,1.48
2018-12-15T07:15:30.547Z,1.35
2018-12-15T07:16:30.034Z,1.4
2018-12-15T07:17:30.026Z,1.37
2018-12-15T07:18:30.536Z,1.5
2018-12-15T07:19:29.991Z,1.45
2018-12-15T07:20:30.220Z,1.48
2018-12-15T07:21:30.459Z,1.42
2018-12-15T07:22:29.949Z,1.44
2018-12-15T07:23:30.451Z,1.44
2018-12-15T07:24:29.929Z,1.48
2018-12-15T07:25:30.172Z,1.4
2018-12-15T07:26:30.166Z,1.32
2018-12-15T07:27:30.163Z,1.38
2018-12-15T07:28:30.131Z,1.22
2018-12-15T07:29:29.868Z,1.24
2018-12-15T07:30:30.123Z,1.23
2018-12-15T07:31:30.102Z,1.35
2018-12-15T07:32:30.333Z,1.37
2018-12-15T07:33:30.073Z,1.4
2018-12-15T07:34:30.064Z,1.45
2018-12-15T07:35:30.048Z,1.38
2018-12-15T07:36:30.040Z,1.38
2018-12-15T07:37:31.420Z,1.5
2018-12-15T07:38:30.013Z,1.53
2018-12-15T07:39:30.987Z,1.53
2018-12-15T07:40:29.743Z,1.44
2018-12-15T07:41:29.981Z,1.5
2018-12-15T07:42:29.717Z,1.42
2018-12-15T07:43:29.959Z,1.48
2018-12-15T07:44:29.976Z,1.48
2018-12-15T07:45:29.693Z,1.37
2018-12-15T07:46:30.173Z,1.37
2018-12-15T07:47:29.915Z,1.32
2018-12-15T07:48:29.899Z,1.37
2018-12-15T07:49:29.901Z,1.44
2018-12-15T07:50:29.877Z,1.49
2018-12-15T07:51:29.869Z,1.5
2018-12-15T07:52:29.847Z,1.53
2018-12-15T07:53:29.838Z,1.63
2018-12-15T07:54:29.573Z,1.56
2018-12-15T07:55:29.860Z,1.56
2018-12-15T07:56:29.818Z,1.62
2018-12-15T07:57:29.792Z,1.52
2018-12-15T07:58:29.818Z,1.55
2018-12-15T07:59:30.030Z,1.52
2018-12-15T08:00:30.014Z,1.55
2018-12-15T08:01:29.747Z,1.56
2018-12-15T08:02:29.996Z,1.6
2018-12-15T08:03:30.010Z,1.63
2018-12-15T08:04:29.702Z,1.59
2018-12-15T08:05:29.700Z,1.6
2018-12-15T08:06:29.679Z,1.59
2018-12-15T08:07:29.692Z,1.56
2018-12-15T08:08:29.656Z,1.6
2018-12-15T08:09:29.898Z,1.67
2018-12-15T08:10:29.914Z,1.68
2018-12-15T08:11:29.899Z,1.68
2018-12-15T08:12:29.895Z,1.58
2018-12-15T08:13:29.614Z,1.62
2018-12-15T08:14:29.838Z,1.58
2018-12-15T08:15:29.845Z,1.56
2018-12-15T08:16:29.573Z,1.52
2018-12-15T08:17:29.795Z,1.5
2018-12-15T08:18:29.545Z,1.48
2018-12-15T08:19:29.542Z,1.44
2018-12-15T08:20:29.771Z,1.45
2018-12-15T08:21:29.515Z,1.44
2018-12-15T08:22:30.864Z,1.45
2018-12-15T08:23:29.727Z,1.44
2018-12-15T08:24:29.721Z,1.53
2018-12-15T08:25:29.472Z,1.53
2018-12-15T08:26:29.689Z,1.55
2018-12-15T08:27:29.698Z,1.56
2018-12-15T08:28:29.426Z,1.59
2018-12-15T08:29:29.415Z,1.71
2018-12-15T08:30:29.643Z,1.63
2018-12-15T08:31:29.138Z,1.73
2018-12-15T08:32:29.637Z,1.77
2018-12-15T08:33:29.381Z,1.74
2018-12-15T08:34:29.097Z,1.81
2018-12-15T08:35:29.347Z,1.78
2018-12-15T08:36:29.579Z,1.8
2018-12-15T08:37:29.566Z,1.84
2018-12-15T08:38:29.322Z,1.88
2018-12-15T08:39:29.551Z,1.8
2018-12-15T08:40:29.315Z,1.77
2018-12-15T08:41:29.523Z,1.84
2018-12-15T08:42:29.514Z,1.81
2018-12-15T08:43:29.260Z,1.91
2018-12-15T08:44:29.008Z,1.85
2018-12-15T08:45:29.229Z,1.87
2018-12-15T08:46:29.215Z,1.8
2018-12-15T08:47:29.219Z,1.87
2018-12-15T08:48:29.194Z,1.8
2018-12-15T08:49:29.211Z,1.91
2018-12-15T08:50:29.162Z,1.84
2018-12-15T08:51:28.907Z,1.87
2018-12-15T08:52:29.139Z,1.95
2018-12-15T08:53:29.151Z,1.88
2018-12-15T08:54:29.384Z,1.88
2018-12-15T08:55:29.108Z,1.92
2018-12-15T08:56:29.333Z,1.91
2018-12-15T08:57:29.336Z,1.94
2018-12-15T08:58:29.101Z,1.99
2018-12-15T08:59:29.059Z,2
2018-12-15T09:00:29.302Z,1.97
2018-12-15T09:01:29.031Z,1.94
2018-12-15T09:02:28.790Z,1.92
2018-12-15T09:03:29.019Z,1.89
2018-12-15T09:04:29.243Z,1.94
2018-12-15T09:05:29.255Z,2.02
2018-12-15T09:06:28.729Z,2.04
2018-12-15T09:07:28.920Z,2.11
2018-12-15T09:08:31.718Z,2.08
2018-12-15T09:09:29.188Z,2.07
2018-12-15T09:10:28.920Z,2.08
2018-12-15T09:11:28.924Z,2.07
2018-12-15T09:12:29.145Z,2.07
2018-12-15T09:13:28.886Z,2.02
2018-12-15T09:14:28.651Z,1.92
2018-12-15T09:15:28.861Z,1.88
2018-12-15T09:16:31.299Z,1.85
2018-12-15T09:17:29.088Z,1.74
2018-12-15T09:18:29.088Z,1.78
2018-12-15T09:19:28.856Z,1.76
2018-12-15T09:20:28.562Z,1.77
2018-12-15T09:21:28.554Z,1.74
2018-12-15T09:22:29.052Z,1.74
2018-12-15T09:23:29.018Z,1.91
2018-12-15T09:24:29.000Z,1.92
2018-12-15T09:25:28.763Z,1.88
2018-12-15T09:26:28.975Z,2.02
2018-12-15T09:27:28.980Z,2.04
2018-12-15T09:28:28.705Z,1.92
2018-12-15T09:29:28.722Z,1.99
2018-12-15T09:30:28.692Z,2
2018-12-15T09:31:28.677Z,2.1
2018-12-15T09:32:28.910Z,2.07
2018-12-15T09:33:28.912Z,2.07
2018-12-15T09:34:28.648Z,2.04
2018-12-15T09:35:28.869Z,1.88
2018-12-15T09:36:28.625Z,1.91
2018-12-15T09:37:28.909Z,1.88
2018-12-15T09:38:28.608Z,1.87
2018-12-15T09:39:28.839Z,1.97
2018-12-15T09:40:28.811Z,2.04
2018-12-15T09:41:28.808Z,2.08
2018-12-15T09:42:28.788Z,2.07
2018-12-15T09:43:28.782Z,2.08
2018-12-15T09:44:28.749Z,1.94
2018-12-15T09:45:28.511Z,2
2018-12-15T09:46:28.501Z,1.91
2018-12-15T09:47:28.483Z,2
2018-12-15T09:48:28.473Z,2.04
2018-12-15T09:49:28.703Z,1.97
2018-12-15T09:50:28.199Z,2.02
2018-12-15T09:51:28.718Z,2.06
2018-12-15T09:52:28.466Z,1.91
2018-12-15T09:53:28.734Z,2.04
2018-12-15T09:54:28.150Z,2.02
2018-12-15T09:55:28.408Z,1.97
2018-12-15T09:56:28.404Z,1.85
2018-12-15T09:57:28.379Z,2.04
2018-12-15T09:58:28.100Z,1.92
2018-12-15T09:59:28.337Z,2.08
2018-12-15T10:00:28.092Z,2.07
2018-12-15T10:01:28.338Z,2.07
2018-12-15T10:02:28.324Z,2.11
2018-12-15T10:03:28.543Z,2.15
2018-12-15T10:04:28.310Z,2.15
2018-12-15T10:05:28.515Z,2.18
2018-12-15T10:06:28.006Z,2.29
2018-12-15T10:07:28.626Z,2.25
2018-12-15T10:08:28.232Z,2.25
2018-12-15T10:09:30.433Z,2.2
2018-12-15T10:10:28.212Z,2.25
2018-12-15T10:11:27.953Z,2.14
2018-12-15T10:12:27.953Z,2.13
2018-12-15T10:13:28.181Z,2.17
2018-12-15T10:14:28.157Z,2.25
2018-12-15T10:15:28.392Z,2.17
2018-12-15T10:16:28.390Z,2.25
2018-12-15T10:17:28.397Z,2.28
2018-12-15T10:18:27.878Z,2.28
2018-12-15T10:19:28.789Z,2.31
2018-12-15T10:20:28.112Z,2.26
2018-12-15T10:21:28.077Z,2.24
2018-12-15T10:22:28.397Z,2.13
2018-12-15T10:23:28.296Z,2.1
2018-12-15T10:24:28.051Z,2.1
2018-12-15T10:25:28.323Z,1.95
2018-12-15T10:26:27.788Z,1.94
2018-12-15T10:27:28.254Z,2.07
2018-12-15T10:28:27.990Z,2.06
2018-12-15T10:29:27.984Z,2.11
2018-12-15T10:30:28.215Z,2.1
2018-12-15T10:31:27.955Z,2.14
2018-12-15T10:32:27.954Z,2.13
2018-12-15T10:33:28.187Z,2.26
2018-12-15T10:34:27.936Z,2.28
2018-12-15T10:35:27.923Z,2.29
2018-12-15T10:36:27.921Z,2.36
2018-12-15T10:37:28.181Z,2.43
2018-12-15T10:38:27.924Z,2.38
2018-12-15T10:39:30.663Z,2.28
2018-12-15T10:40:27.868Z,2.24
2018-12-15T10:41:28.111Z,2.33
2018-12-15T10:42:27.896Z,2.32
2018-12-15T10:43:27.840Z,2.26
2018-12-15T10:44:27.819Z,2.26
2018-12-15T10:45:27.798Z,2.25
2018-12-15T10:46:27.609Z,2.24
2018-12-15T10:47:28.037Z,2.25
2018-12-15T10:48:28.025Z,2.25
2018-12-15T10:49:33.117Z,2.29
2018-12-15T10:50:27.996Z,2.31
2018-12-15T10:51:27.736Z,2.26
2018-12-15T10:52:27.740Z,2.28
2018-12-15T10:53:27.712Z,2.2
2018-12-15T10:54:27.794Z,2.24
2018-12-15T10:55:27.692Z,2.22
2018-12-15T10:56:27.667Z,2.24
2018-12-15T10:57:27.926Z,2.26
2018-12-15T10:58:27.895Z,2.28
2018-12-15T10:59:27.907Z,2.43
2018-12-15T11:00:27.620Z,2.44
2018-12-15T11:01:27.625Z,2.31
2018-12-15T11:02:27.360Z,2.38
2018-12-15T11:03:27.840Z,2.36
2018-12-15T11:04:27.571Z,2.42
2018-12-15T11:05:27.663Z,2.25
2018-12-15T11:06:27.806Z,2.28
2018-12-15T11:07:27.549Z,2.24
2018-12-15T11:08:27.547Z,2.31
2018-12-15T11:09:27.529Z,2.14
2018-12-15T11:10:27.821Z,2.18
2018-12-15T11:11:27.747Z,2.15
2018-12-15T11:12:27.739Z,2.13
2018-12-15T11:13:27.477Z,2.28
2018-12-15T11:14:27.214Z,2.28
2018-12-15T11:15:27.703Z,2.2
2018-12-15T11:16:27.696Z,2.25
2018-12-15T11:17:27.677Z,2.28
2018-12-15T11:18:27.418Z,2.35
2018-12-15T11:19:27.659Z,2.28
2018-12-15T11:20:27.646Z,2.31
2018-12-15T11:21:27.380Z,2.32
2018-12-15T11:22:27.632Z,2.35
2018-12-15T11:23:27.370Z,2.43
2018-12-15T11:24:27.604Z,2.43
2018-12-15T11:25:27.603Z,2.42
2018-12-15T11:26:27.334Z,2.39
2018-12-15T11:27:27.579Z,2.46
2018-12-15T11:28:27.546Z,2.46
2018-12-15T11:29:27.546Z,2.44
2018-12-15T11:30:27.300Z,2.47
2018-12-15T11:31:27.516Z,2.6
2018-12-15T11:32:27.255Z,2.64
2018-12-15T11:33:27.493Z,2.54
2018-12-15T11:34:27.520Z,2.39
2018-12-15T11:35:26.987Z,2.43
2018-12-15T11:36:26.969Z,2.36
2018-12-15T11:37:27.454Z,2.42
2018-12-15T11:38:27.432Z,2.43
2018-12-15T11:39:27.186Z,2.39
2018-12-15T11:40:29.667Z,2.42
2018-12-15T11:41:27.427Z,2.56
2018-12-15T11:42:26.898Z,2.43
2018-12-15T11:43:27.139Z,2.31
2018-12-15T11:44:26.943Z,2.42
2018-12-15T11:45:27.379Z,2.39
2018-12-15T11:46:27.344Z,2.53
2018-12-15T11:47:27.106Z,2.51
2018-12-15T11:48:27.082Z,2.6
2018-12-15T11:49:27.068Z,2.57
2018-12-15T11:50:27.307Z,2.53
2018-12-15T11:51:27.090Z,2.56
2018-12-15T11:52:26.785Z,2.39
2018-12-15T11:53:27.264Z,2.2
2018-12-15T11:54:27.253Z,2.32
2018-12-15T11:55:27.256Z,2.28
2018-12-15T11:56:27.249Z,2.42
2018-12-15T11:57:27.216Z,2.39
2018-12-15T11:58:26.728Z,2.47
2018-12-15T11:59:26.965Z,2.54
2018-12-15T12:00:27.203Z,2.49
2018-12-15T12:01:27.177Z,2.54
2018-12-15T12:02:31.774Z,2.57
2018-12-15T12:03:27.158Z,2.61
2018-12-15T12:04:26.901Z,2.61
2018-12-15T12:05:27.124Z,2.64
2018-12-15T12:06:26.884Z,2.62
2018-12-15T12:07:26.609Z,2.69
2018-12-15T12:08:27.085Z,2.54
2018-12-15T12:09:27.097Z,2.53
2018-12-15T12:10:27.086Z,2.6
2018-12-15T12:11:26.832Z,2.51
2018-12-15T12:12:26.803Z,2.39
2018-12-15T12:13:27.037Z,2.26
2018-12-15T12:14:27.048Z,2.26
2018-12-15T12:15:27.032Z,2.18
2018-12-15T12:16:27.007Z,2.26
2018-12-15T12:17:26.996Z,2.15
2018-12-15T12:18:26.994Z,2.2
2018-12-15T12:19:26.988Z,2.25
2018-12-15T12:20:26.710Z,2.13
2018-12-15T12:21:26.466Z,2.18
2018-12-15T12:22:26.689Z,2.11
2018-12-15T12:23:26.916Z,2.25
2018-12-15T12:24:26.662Z,2.17
2018-12-15T12:25:26.656Z,2.24
2018-12-15T12:26:26.631Z,2.11
2018-12-15T12:27:26.401Z,2.26
2018-12-15T12:28:26.858Z,2.38
2018-12-15T12:29:26.605Z,2.44
2018-12-15T12:30:26.594Z,2.33
2018-12-15T12:31:26.823Z,2.44
2018-12-15T12:32:26.821Z,2.53
2018-12-15T12:33:26.805Z,2.51
2018-12-15T12:34:26.793Z,2.51
2018-12-15T12:35:26.790Z,2.62
2018-12-15T12:36:26.787Z,2.64
2018-12-15T12:37:26.790Z,2.56
2018-12-15T12:38:26.739Z,2.61
2018-12-15T12:39:26.483Z,2.64
2018-12-15T12:40:26.729Z,2.65
2018-12-15T12:41:26.463Z,2.62
2018-12-15T12:42:26.252Z,2.6
2018-12-15T12:43:26.695Z,2.61
2018-12-15T12:44:26.681Z,2.64
2018-12-15T12:45:26.668Z,2.53
2018-12-15T12:46:26.684Z,2.29
2018-12-15T12:47:26.467Z,2.26
2018-12-15T12:48:26.409Z,2.13
2018-12-15T12:49:26.621Z,2.2
2018-12-15T12:50:26.614Z,2.14
2018-12-15T12:51:26.358Z,2.25
2018-12-15T12:52:26.351Z,2.26
2018-12-15T12:53:26.587Z,2.29
2018-12-15T12:54:26.078Z,2.28
2018-12-15T12:55:26.543Z,2.36
2018-12-15T12:56:26.042Z,2.42
2018-12-15T12:57:26.295Z,2.46
2018-12-15T12:58:26.514Z,2.57
2018-12-15T12:59:26.512Z,2.61
2018-12-15T13:00:26.249Z,2.57
2018-12-15T13:01:26.558Z,2.65
2018-12-15T13:02:26.489Z,2.6
2018-12-15T13:03:25.980Z,2.56
2018-12-15T13:04:26.474Z,2.65
2018-12-15T13:05:26.451Z,2.65
2018-12-15T13:06:25.947Z,2.56
2018-12-15T13:07:26.450Z,2.6
2018-12-15T13:08:26.431Z,2.6
2018-12-15T13:09:26.407Z,2.6
2018-12-15T13:10:26.147Z,2.53
2018-12-15T13:11:26.433Z,2.53
2018-12-15T13:12:26.374Z,2.53
2018-12-15T13:13:26.130Z,2.56
2018-12-15T13:14:25.864Z,2.51
2018-12-15T13:15:26.081Z,2.39
2018-12-15T13:16:26.328Z,2.49
2018-12-15T13:17:26.072Z,2.42
2018-12-15T13:18:26.302Z,2.46
2018-12-15T13:19:26.311Z,2.47
2018-12-15T13:20:26.095Z,2.49
2018-12-15T13:21:26.275Z,2.57